sensor_id;sensor_type;location;lat;lon;timestamp;pressure;altitude;pressure_sealevel;temperature;humidity
59493;BME280;45497;43.996;22.876;2024-01-07T00:00:02;99897.56;;;7.49;56.80
59493;BME280;45497;43.996;22.876;2024-01-07T00:02:28;99884.88;;;7.36;57.18
59493;BME280;45497;43.996;22.876;2024-01-07T00:04:56;99885.59;;;7.22;57.49
59493;BME280;45497;43.996;22.876;2024-01-07T00:07:21;99904.34;;;7.35;57.30
59493;BME280;45497;43.996;22.876;2024-01-07T00:09:47;99903.44;;;7.59;56.92
59493;BME280;45497;43.996;22.876;2024-01-07T00:12:12;99900.63;;;7.69;56.68
59493;BME280;45497;43.996;22.876;2024-01-07T00:14:41;99894.66;;;7.75;56.39
59493;BME280;45497;43.996;22.876;2024-01-07T00:17:07;99899.91;;;7.83;56.41
59493;BME280;45497;43.996;22.876;2024-01-07T00:19:32;99900.22;;;7.89;56.28
59493;BME280;45497;43.996;22.876;2024-01-07T00:22:00;99899.84;;;7.92;56.22
59493;BME280;45497;43.996;22.876;2024-01-07T00:24:26;99893.03;;;7.97;56.05
59493;BME280;45497;43.996;22.876;2024-01-07T00:26:55;99874.09;;;7.94;55.99
59493;BME280;45497;43.996;22.876;2024-01-07T00:29:21;99870.34;;;7.88;56.34
59493;BME280;45497;43.996;22.876;2024-01-07T00:31:46;99864.81;;;7.75;56.45
59493;BME280;45497;43.996;22.876;2024-01-07T00:34:12;99857.78;;;7.67;56.86
59493;BME280;45497;43.996;22.876;2024-01-07T00:36:38;99854.75;;;7.70;57.13
59493;BME280;45497;43.996;22.876;2024-01-07T00:39:03;99872.16;;;7.88;56.60
59493;BME280;45497;43.996;22.876;2024-01-07T00:41:32;99857.94;;;7.97;56.27
59493;BME280;45497;43.996;22.876;2024-01-07T00:43:58;99859.78;;;7.88;56.70
59493;BME280;45497;43.996;22.876;2024-01-07T00:46:23;99850.00;;;7.97;56.54
59493;BME280;45497;43.996;22.876;2024-01-07T00:48:49;99850.78;;;8.06;56.61
59493;BME280;45497;43.996;22.876;2024-01-07T00:51:15;99850.44;;;8.09;56.47
59493;BME280;45497;43.996;22.876;2024-01-07T00:53:40;99850.31;;;8.02;56.39
59493;BME280;45497;43.996;22.876;2024-01-07T00:56:06;99847.03;;;8.00;56.80
59493;BME280;45497;43.996;22.876;2024-01-07T00:58:33;99840.38;;;7.81;56.95
59493;BME280;45497;43.996;22.876;2024-01-07T01:01:01;99827.41;;;7.71;57.71
59493;BME280;45497;43.996;22.876;2024-01-07T01:03:26;99825.72;;;7.78;57.66
59493;BME280;45497;43.996;22.876;2024-01-07T01:05:53;99818.84;;;7.69;57.99
59493;BME280;45497;43.996;22.876;2024-01-07T01:08:19;99812.94;;;7.90;57.69
59493;BME280;45497;43.996;22.876;2024-01-07T01:10:45;99804.44;;;8.03;57.35
59493;BME280;45497;43.996;22.876;2024-01-07T01:13:11;99816.41;;;8.14;56.89
59493;BME280;45497;43.996;22.876;2024-01-07T01:15:37;99805.84;;;8.14;56.76
59493;BME280;45497;43.996;22.876;2024-01-07T01:18:02;99806.09;;;8.04;56.96
59493;BME280;45497;43.996;22.876;2024-01-07T01:20:28;99791.47;;;7.93;57.26
59493;BME280;45497;43.996;22.876;2024-01-07T01:22:54;99795.78;;;7.94;57.20
59493;BME280;45497;43.996;22.876;2024-01-07T01:25:20;99785.78;;;8.04;57.30
59493;BME280;45497;43.996;22.876;2024-01-07T01:27:46;99760.69;;;7.85;57.58
59493;BME280;45497;43.996;22.876;2024-01-07T01:30:12;99769.59;;;7.84;57.42
59493;BME280;45497;43.996;22.876;2024-01-07T01:49:47;99755.31;;;8.40;56.38
59493;BME280;45497;43.996;22.876;2024-01-07T01:52:16;99745.22;;;8.44;56.55
59493;BME280;45497;43.996;22.876;2024-01-07T01:54:42;99737.63;;;8.40;56.64
59493;BME280;45497;43.996;22.876;2024-01-07T01:57:09;99730.16;;;8.29;56.58
59493;BME280;45497;43.996;22.876;2024-01-07T01:59:42;99721.94;;;8.24;56.81
59493;BME280;45497;43.996;22.876;2024-01-07T02:02:08;99711.94;;;8.19;56.67
59493;BME280;45497;43.996;22.876;2024-01-07T02:04:34;99701.00;;;8.22;56.76
59493;BME280;45497;43.996;22.876;2024-01-07T02:07:03;99689.31;;;8.02;57.14
59493;BME280;45497;43.996;22.876;2024-01-07T02:09:31;99690.00;;;7.96;57.82
59493;BME280;45497;43.996;22.876;2024-01-07T02:12:13;99688.38;;;7.95;57.54
59493;BME280;45497;43.996;22.876;2024-01-07T02:14:41;99670.34;;;7.83;57.72
59493;BME280;45497;43.996;22.876;2024-01-07T02:17:07;99690.22;;;7.71;58.39
59493;BME280;45497;43.996;22.876;2024-01-07T02:19:32;99680.19;;;7.66;58.38
59493;BME280;45497;43.996;22.876;2024-01-07T02:22:01;99671.41;;;7.74;58.10
59493;BME280;45497;43.996;22.876;2024-01-07T02:24:27;99671.22;;;7.76;57.80
59493;BME280;45497;43.996;22.876;2024-01-07T02:26:56;99663.38;;;7.68;57.78
59493;BME280;45497;43.996;22.876;2024-01-07T02:29:25;99675.97;;;7.57;58.40
59493;BME280;45497;43.996;22.876;2024-01-07T02:31:50;99675.03;;;7.73;58.09
59493;BME280;45497;43.996;22.876;2024-01-07T02:34:16;99670.56;;;7.74;57.70
59493;BME280;45497;43.996;22.876;2024-01-07T02:36:42;99663.50;;;7.74;57.76
59493;BME280;45497;43.996;22.876;2024-01-07T02:39:10;99656.22;;;7.76;57.48
59493;BME280;45497;43.996;22.876;2024-01-07T02:41:37;99654.06;;;7.80;57.50
59493;BME280;45497;43.996;22.876;2024-01-07T02:44:02;99642.56;;;7.73;57.19
59493;BME280;45497;43.996;22.876;2024-01-07T02:46:28;99636.53;;;7.64;57.66
59493;BME280;45497;43.996;22.876;2024-01-07T02:48:54;99630.00;;;7.60;57.76
59493;BME280;45497;43.996;22.876;2024-01-07T02:51:19;99637.69;;;7.61;57.66
59493;BME280;45497;43.996;22.876;2024-01-07T02:53:45;99626.50;;;7.59;57.54
59493;BME280;45497;43.996;22.876;2024-01-07T02:56:11;99609.38;;;7.40;57.83
59493;BME280;45497;43.996;22.876;2024-01-07T02:58:36;99618.03;;;7.49;57.52
59493;BME280;45497;43.996;22.876;2024-01-07T03:01:03;99621.03;;;7.46;57.82
59493;BME280;45497;43.996;22.876;2024-01-07T03:03:33;99619.84;;;7.49;57.40
59493;BME280;45497;43.996;22.876;2024-01-07T03:05:58;99628.59;;;7.49;57.60
59493;BME280;45497;43.996;22.876;2024-01-07T03:08:24;99624.66;;;7.45;57.48
59493;BME280;45497;43.996;22.876;2024-01-07T03:10:50;99622.38;;;7.42;57.76
59493;BME280;45497;43.996;22.876;2024-01-07T03:13:15;99623.38;;;7.41;58.10
59493;BME280;45497;43.996;22.876;2024-01-07T03:15:41;99624.47;;;7.46;57.66
59493;BME280;45497;43.996;22.876;2024-01-07T03:18:07;99625.66;;;7.44;57.62
59493;BME280;45497;43.996;22.876;2024-01-07T03:20:33;99618.13;;;7.33;58.02
59493;BME280;45497;43.996;22.876;2024-01-07T03:23:08;99616.22;;;7.26;58.22
59493;BME280;45497;43.996;22.876;2024-01-07T03:25:33;99620.59;;;7.34;58.12
59493;BME280;45497;43.996;22.876;2024-01-07T03:27:59;99609.84;;;7.44;57.78
59493;BME280;45497;43.996;22.876;2024-01-07T03:30:24;99597.75;;;7.50;57.68
59493;BME280;45497;43.996;22.876;2024-01-07T03:32:50;99592.72;;;7.40;57.77
59493;BME280;45497;43.996;22.876;2024-01-07T03:35:16;99573.06;;;7.04;58.43
59493;BME280;45497;43.996;22.876;2024-01-07T03:37:41;99570.72;;;7.10;58.93
59493;BME280;45497;43.996;22.876;2024-01-07T03:40:11;99564.59;;;7.09;58.56
59493;BME280;45497;43.996;22.876;2024-01-07T03:42:39;99565.91;;;7.13;58.74
59493;BME280;45497;43.996;22.876;2024-01-07T03:45:05;99563.97;;;7.30;58.06
59493;BME280;45497;43.996;22.876;2024-01-07T03:47:31;99552.75;;;7.13;58.68
59493;BME280;45497;43.996;22.876;2024-01-07T03:49:57;99549.97;;;7.06;58.81
59493;BME280;45497;43.996;22.876;2024-01-07T03:52:23;99540.84;;;7.17;58.45
59493;BME280;45497;43.996;22.876;2024-01-07T03:54:48;99549.50;;;7.26;58.30
59493;BME280;45497;43.996;22.876;2024-01-07T03:57:14;99558.56;;;7.23;58.23
59493;BME280;45497;43.996;22.876;2024-01-07T03:59:39;99560.28;;;7.16;58.44
59493;BME280;45497;43.996;22.876;2024-01-07T04:02:06;99562.63;;;7.11;58.30
59493;BME280;45497;43.996;22.876;2024-01-07T04:04:32;99556.66;;;7.17;58.47
59493;BME280;45497;43.996;22.876;2024-01-07T04:06:57;99560.59;;;7.36;58.21
59493;BME280;45497;43.996;22.876;2024-01-07T04:09:23;99557.19;;;7.51;57.87
59493;BME280;45497;43.996;22.876;2024-01-07T04:11:51;99553.03;;;7.56;57.26
59493;BME280;45497;43.996;22.876;2024-01-07T04:14:16;99559.81;;;7.51;57.43
59493;BME280;45497;43.996;22.876;2024-01-07T04:16:42;99545.72;;;7.43;57.54
59493;BME280;45497;43.996;22.876;2024-01-07T04:19:08;99551.88;;;7.36;57.89
59493;BME280;45497;43.996;22.876;2024-01-07T04:21:33;99545.50;;;7.30;58.00
59493;BME280;45497;43.996;22.876;2024-01-07T04:24:01;99548.41;;;7.20;58.18
59493;BME280;45497;43.996;22.876;2024-01-07T04:26:27;99551.06;;;7.35;58.27
59493;BME280;45497;43.996;22.876;2024-01-07T04:28:52;99536.03;;;7.21;58.57
59493;BME280;45497;43.996;22.876;2024-01-07T04:31:18;99528.00;;;6.91;59.15
59493;BME280;45497;43.996;22.876;2024-01-07T04:33:44;99537.91;;;7.12;58.85
59493;BME280;45497;43.996;22.876;2024-01-07T04:36:10;99531.13;;;6.95;59.16
59493;BME280;45497;43.996;22.876;2024-01-07T04:38:35;99521.88;;;6.99;59.32
59493;BME280;45497;43.996;22.876;2024-01-07T04:41:02;99532.47;;;7.14;58.64
59493;BME280;45497;43.996;22.876;2024-01-07T04:43:28;99526.72;;;7.10;58.68
59493;BME280;45497;43.996;22.876;2024-01-07T04:45:53;99526.31;;;6.98;59.11
59493;BME280;45497;43.996;22.876;2024-01-07T04:48:19;99513.59;;;7.02;58.94
59493;BME280;45497;43.996;22.876;2024-01-07T04:50:45;99518.09;;;7.16;59.25
59493;BME280;45497;43.996;22.876;2024-01-07T04:53:10;99527.00;;;7.38;58.01
59493;BME280;45497;43.996;22.876;2024-01-07T04:55:39;99512.28;;;7.44;57.65
59493;BME280;45497;43.996;22.876;2024-01-07T04:58:05;99531.19;;;7.47;57.96
59493;BME280;45497;43.996;22.876;2024-01-07T05:00:30;99507.38;;;7.56;58.06
59493;BME280;45497;43.996;22.876;2024-01-07T05:02:56;99514.28;;;7.42;57.91
59493;BME280;45497;43.996;22.876;2024-01-07T05:05:22;99524.69;;;7.58;58.08
59493;BME280;45497;43.996;22.876;2024-01-07T05:07:47;99532.31;;;7.68;57.53
59493;BME280;45497;43.996;22.876;2024-01-07T05:10:13;99536.97;;;7.81;57.58
59493;BME280;45497;43.996;22.876;2024-01-07T05:12:39;99531.22;;;7.92;57.23
59493;BME280;45497;43.996;22.876;2024-01-07T05:15:04;99530.59;;;7.75;57.18
59493;BME280;45497;43.996;22.876;2024-01-07T05:17:31;99517.84;;;7.64;57.56
59493;BME280;45497;43.996;22.876;2024-01-07T05:19:57;99513.28;;;7.58;57.84
59493;BME280;45497;43.996;22.876;2024-01-07T05:22:26;99513.66;;;7.55;57.86
59493;BME280;45497;43.996;22.876;2024-01-07T05:24:54;99512.81;;;7.54;57.80
59493;BME280;45497;43.996;22.876;2024-01-07T05:27:20;99506.75;;;7.54;57.77
59493;BME280;45497;43.996;22.876;2024-01-07T05:29:45;99505.38;;;7.58;57.75
59493;BME280;45497;43.996;22.876;2024-01-07T05:32:12;99512.13;;;7.60;57.90
59493;BME280;45497;43.996;22.876;2024-01-07T05:34:38;99504.56;;;7.42;57.94
59493;BME280;45497;43.996;22.876;2024-01-07T05:37:04;99488.63;;;7.36;58.21
59493;BME280;45497;43.996;22.876;2024-01-07T05:39:29;99499.00;;;7.37;58.65
59493;BME280;45497;43.996;22.876;2024-01-07T05:41:55;99491.00;;;7.45;58.28
59493;BME280;45497;43.996;22.876;2024-01-07T05:44:20;99486.91;;;7.58;57.92
59493;BME280;45497;43.996;22.876;2024-01-07T05:46:46;99483.56;;;7.49;58.14
59493;BME280;45497;43.996;22.876;2024-01-07T05:49:12;99479.47;;;7.61;58.06
59493;BME280;45497;43.996;22.876;2024-01-07T05:51:40;99487.41;;;7.76;57.89
59493;BME280;45497;43.996;22.876;2024-01-07T05:54:06;99479.66;;;7.90;57.72
59493;BME280;45497;43.996;22.876;2024-01-07T05:56:32;99459.66;;;7.80;57.46
59493;BME280;45497;43.996;22.876;2024-01-07T05:58:57;99468.47;;;7.73;57.87
59493;BME280;45497;43.996;22.876;2024-01-07T06:01:23;99476.66;;;7.78;57.70
59493;BME280;45497;43.996;22.876;2024-01-07T06:03:49;99473.75;;;7.88;57.56
59493;BME280;45497;43.996;22.876;2024-01-07T06:06:15;99480.41;;;7.83;57.72
59493;BME280;45497;43.996;22.876;2024-01-07T06:08:43;99482.56;;;7.95;57.58
59493;BME280;45497;43.996;22.876;2024-01-07T06:11:09;99472.56;;;8.05;57.19
59493;BME280;45497;43.996;22.876;2024-01-07T06:13:36;99465.09;;;8.09;57.00
59493;BME280;45497;43.996;22.876;2024-01-07T06:16:01;99478.16;;;8.17;56.91
59493;BME280;45497;43.996;22.876;2024-01-07T06:18:27;99480.59;;;8.33;57.03
59493;BME280;45497;43.996;22.876;2024-01-07T06:20:53;99468.13;;;8.42;56.71
59493;BME280;45497;43.996;22.876;2024-01-07T06:23:19;99463.09;;;8.47;56.61
59493;BME280;45497;43.996;22.876;2024-01-07T06:25:45;99462.72;;;8.35;56.64
59493;BME280;45497;43.996;22.876;2024-01-07T06:28:11;99463.13;;;8.17;56.66
59493;BME280;45497;43.996;22.876;2024-01-07T06:30:37;99464.16;;;8.16;57.19
59493;BME280;45497;43.996;22.876;2024-01-07T06:33:03;99462.59;;;8.22;56.61
59493;BME280;45497;43.996;22.876;2024-01-07T06:35:28;99454.66;;;8.22;57.03
59493;BME280;45497;43.996;22.876;2024-01-07T06:37:54;99460.03;;;8.14;56.83
59493;BME280;45497;43.996;22.876;2024-01-07T06:40:20;99478.44;;;8.22;57.25
59493;BME280;45497;43.996;22.876;2024-01-07T06:42:45;99472.69;;;8.18;57.00
59493;BME280;45497;43.996;22.876;2024-01-07T06:45:13;99469.63;;;8.15;56.89
59493;BME280;45497;43.996;22.876;2024-01-07T06:47:40;99470.66;;;8.35;57.22
59493;BME280;45497;43.996;22.876;2024-01-07T06:50:09;99462.47;;;8.45;56.60
59493;BME280;45497;43.996;22.876;2024-01-07T06:52:35;99467.41;;;8.48;56.71
59493;BME280;45497;43.996;22.876;2024-01-07T06:55:01;99468.84;;;8.51;56.35
59493;BME280;45497;43.996;22.876;2024-01-07T06:57:27;99481.53;;;8.62;56.67
59493;BME280;45497;43.996;22.876;2024-01-07T06:59:52;99468.31;;;8.62;56.41
59493;BME280;45497;43.996;22.876;2024-01-07T07:02:20;99485.03;;;8.63;56.44
59493;BME280;45497;43.996;22.876;2024-01-07T07:04:45;99477.97;;;8.70;56.19
59493;BME280;45497;43.996;22.876;2024-01-07T07:07:12;99483.03;;;8.71;56.64
59493;BME280;45497;43.996;22.876;2024-01-07T07:09:37;99474.44;;;8.63;56.65
59493;BME280;45497;43.996;22.876;2024-01-07T07:12:03;99480.72;;;8.61;56.62
59493;BME280;45497;43.996;22.876;2024-01-07T07:14:29;99481.34;;;8.64;56.93
59493;BME280;45497;43.996;22.876;2024-01-07T07:16:57;99477.72;;;8.65;56.58
59493;BME280;45497;43.996;22.876;2024-01-07T07:19:23;99483.63;;;8.67;56.41
59493;BME280;45497;43.996;22.876;2024-01-07T07:21:49;99487.72;;;8.69;56.29
59493;BME280;45497;43.996;22.876;2024-01-07T07:24:15;99495.72;;;8.76;56.91
59493;BME280;45497;43.996;22.876;2024-01-07T07:26:40;99498.97;;;8.78;56.10
59493;BME280;45497;43.996;22.876;2024-01-07T07:29:07;99502.44;;;8.78;56.70
59493;BME280;45497;43.996;22.876;2024-01-07T07:31:39;99501.09;;;8.89;56.67
59493;BME280;45497;43.996;22.876;2024-01-07T07:34:09;99501.63;;;8.99;56.37
59493;BME280;45497;43.996;22.876;2024-01-07T07:36:35;99491.06;;;8.99;56.40
59493;BME280;45497;43.996;22.876;2024-01-07T07:39:05;99497.41;;;9.05;56.30
59493;BME280;45497;43.996;22.876;2024-01-07T07:41:30;99492.13;;;9.05;56.55
59493;BME280;45497;43.996;22.876;2024-01-07T07:43:56;99502.56;;;9.13;56.82
59493;BME280;45497;43.996;22.876;2024-01-07T07:46:22;99490.09;;;9.07;56.52
59493;BME280;45497;43.996;22.876;2024-01-07T07:48:48;99498.59;;;9.03;57.11
59493;BME280;45497;43.996;22.876;2024-01-07T07:51:13;99506.34;;;9.04;56.94
59493;BME280;45497;43.996;22.876;2024-01-07T07:53:39;99492.69;;;9.01;56.74
59493;BME280;45497;43.996;22.876;2024-01-07T07:56:06;99490.06;;;9.01;57.13
59493;BME280;45497;43.996;22.876;2024-01-07T07:58:35;99503.31;;;9.07;56.72
59493;BME280;45497;43.996;22.876;2024-01-07T08:01:00;99494.38;;;9.08;57.12
59493;BME280;45497;43.996;22.876;2024-01-07T08:03:26;99501.50;;;9.08;56.83
59493;BME280;45497;43.996;22.876;2024-01-07T08:05:52;99505.91;;;9.01;57.06
59493;BME280;45497;43.996;22.876;2024-01-07T08:08:18;99498.28;;;8.91;57.41
59493;BME280;45497;43.996;22.876;2024-01-07T08:10:43;99506.41;;;8.89;57.83
59493;BME280;45497;43.996;22.876;2024-01-07T08:13:12;99503.72;;;8.83;57.84
59493;BME280;45497;43.996;22.876;2024-01-07T08:15:37;99496.22;;;8.86;57.83
59493;BME280;45497;43.996;22.876;2024-01-07T08:18:04;99498.97;;;8.78;58.34
59493;BME280;45497;43.996;22.876;2024-01-07T08:20:30;99502.56;;;8.70;58.24
59493;BME280;45497;43.996;22.876;2024-01-07T08:22:56;99495.28;;;8.72;58.65
59493;BME280;45497;43.996;22.876;2024-01-07T08:25:22;99501.97;;;8.75;58.65
59493;BME280;45497;43.996;22.876;2024-01-07T08:27:49;99496.53;;;8.76;58.40
59493;BME280;45497;43.996;22.876;2024-01-07T08:30:14;99489.78;;;8.52;59.36
59493;BME280;45497;43.996;22.876;2024-01-07T08:32:41;99503.16;;;8.51;60.28
59493;BME280;45497;43.996;22.876;2024-01-07T08:35:07;99506.00;;;8.49;60.18
59493;BME280;45497;43.996;22.876;2024-01-07T08:37:33;99506.19;;;8.33;60.63
59493;BME280;45497;43.996;22.876;2024-01-07T08:39:59;99519.03;;;8.36;61.17
59493;BME280;45497;43.996;22.876;2024-01-07T08:42:24;99517.09;;;8.30;61.78
59493;BME280;45497;43.996;22.876;2024-01-07T08:44:50;99507.38;;;8.30;61.52
59493;BME280;45497;43.996;22.876;2024-01-07T08:47:16;99498.63;;;8.30;61.61
59493;BME280;45497;43.996;22.876;2024-01-07T08:49:42;99502.72;;;8.32;61.75
59493;BME280;45497;43.996;22.876;2024-01-07T08:52:09;99503.81;;;8.38;61.53
59493;BME280;45497;43.996;22.876;2024-01-07T08:54:35;99497.28;;;8.34;62.26
59493;BME280;45497;43.996;22.876;2024-01-07T08:57:00;99505.28;;;8.26;62.42
59493;BME280;45497;43.996;22.876;2024-01-07T08:59:27;99498.25;;;8.33;62.27
59493;BME280;45497;43.996;22.876;2024-01-07T09:01:53;99494.00;;;8.17;62.75
59493;BME280;45497;43.996;22.876;2024-01-07T09:04:18;99487.34;;;8.21;63.18
59493;BME280;45497;43.996;22.876;2024-01-07T09:06:44;99499.06;;;8.33;62.34
59493;BME280;45497;43.996;22.876;2024-01-07T09:09:11;99488.19;;;8.21;63.03
59493;BME280;45497;43.996;22.876;2024-01-07T09:11:37;99479.41;;;8.36;62.85
59493;BME280;45497;43.996;22.876;2024-01-07T09:14:03;99473.50;;;8.34;62.21
59493;BME280;45497;43.996;22.876;2024-01-07T09:16:29;99469.53;;;8.23;63.13
59493;BME280;45497;43.996;22.876;2024-01-07T09:18:55;99465.75;;;8.32;62.96
59493;BME280;45497;43.996;22.876;2024-01-07T09:21:21;99465.13;;;8.45;62.96
59493;BME280;45497;43.996;22.876;2024-01-07T09:23:48;99464.00;;;8.39;63.37
59493;BME280;45497;43.996;22.876;2024-01-07T09:26:14;99458.44;;;8.49;63.27
59493;BME280;45497;43.996;22.876;2024-01-07T09:28:40;99461.59;;;8.23;64.21
59493;BME280;45497;43.996;22.876;2024-01-07T09:31:06;99462.41;;;8.60;63.70
59493;BME280;45497;43.996;22.876;2024-01-07T09:33:32;99458.19;;;8.87;62.82
59493;BME280;45497;43.996;22.876;2024-01-07T09:35:58;99453.59;;;8.96;62.43
59493;BME280;45497;43.996;22.876;2024-01-07T09:38:23;99451.75;;;8.90;63.40
59493;BME280;45497;43.996;22.876;2024-01-07T09:40:53;99451.03;;;9.03;62.87
59493;BME280;45497;43.996;22.876;2024-01-07T09:43:20;99437.81;;;9.03;63.56
59493;BME280;45497;43.996;22.876;2024-01-07T09:49:02;99435.31;;;9.23;63.44
59493;BME280;45497;43.996;22.876;2024-01-07T09:51:29;99425.28;;;9.11;63.47
59493;BME280;45497;43.996;22.876;2024-01-07T09:54:02;99409.72;;;9.02;63.90
59493;BME280;45497;43.996;22.876;2024-01-07T09:56:48;99414.53;;;9.19;63.59
59493;BME280;45497;43.996;22.876;2024-01-07T09:59:16;99413.50;;;9.14;63.97
59493;BME280;45497;43.996;22.876;2024-01-07T10:01:44;99395.94;;;9.06;63.87
59493;BME280;45497;43.996;22.876;2024-01-07T10:04:16;99401.00;;;9.01;64.11
59493;BME280;45497;43.996;22.876;2024-01-07T10:06:44;99395.28;;;9.32;63.57
59493;BME280;45497;43.996;22.876;2024-01-07T10:09:15;99384.38;;;9.42;63.48
59493;BME280;45497;43.996;22.876;2024-01-07T10:11:41;99383.16;;;9.45;63.13
59493;BME280;45497;43.996;22.876;2024-01-07T10:14:06;99373.00;;;9.48;63.45
59493;BME280;45497;43.996;22.876;2024-01-07T10:16:32;99371.81;;;9.57;62.93
59493;BME280;45497;43.996;22.876;2024-01-07T10:18:58;99371.09;;;9.77;63.13
59493;BME280;45497;43.996;22.876;2024-01-07T10:21:29;99360.78;;;9.89;62.41
59493;BME280;45497;43.996;22.876;2024-01-07T10:24:11;99364.91;;;10.11;62.28
59493;BME280;45497;43.996;22.876;2024-01-07T10:26:43;99355.34;;;10.10;61.90
59493;BME280;45497;43.996;22.876;2024-01-07T10:29:08;99354.69;;;9.95;62.37
59493;BME280;45497;43.996;22.876;2024-01-07T10:31:40;99352.06;;;10.02;62.67
59493;BME280;45497;43.996;22.876;2024-01-07T10:34:09;99349.00;;;10.11;62.17
59493;BME280;45497;43.996;22.876;2024-01-07T10:36:39;99350.66;;;10.12;62.47
59493;BME280;45497;43.996;22.876;2024-01-07T10:39:09;99352.06;;;10.15;62.45
59493;BME280;45497;43.996;22.876;2024-01-07T10:41:39;99345.38;;;10.26;62.35
59493;BME280;45497;43.996;22.876;2024-01-07T10:44:05;99338.47;;;10.31;61.95
59493;BME280;45497;43.996;22.876;2024-01-07T10:46:31;99342.56;;;10.47;61.99
59493;BME280;45497;43.996;22.876;2024-01-07T10:49:07;99342.78;;;10.39;61.59
59493;BME280;45497;43.996;22.876;2024-01-07T10:51:37;99351.31;;;10.35;61.76
59493;BME280;45497;43.996;22.876;2024-01-07T10:54:07;99345.56;;;10.18;62.58
59493;BME280;45497;43.996;22.876;2024-01-07T10:56:39;99342.72;;;10.19;62.07
59493;BME280;45497;43.996;22.876;2024-01-07T10:59:08;99350.22;;;10.02;62.56
59493;BME280;45497;43.996;22.876;2024-01-07T11:01:34;99355.34;;;10.10;62.62
59493;BME280;45497;43.996;22.876;2024-01-07T11:04:08;99349.03;;;10.18;62.22
59493;BME280;45497;43.996;22.876;2024-01-07T11:07:14;99341.69;;;10.07;62.30
59493;BME280;45497;43.996;22.876;2024-01-07T11:09:33;99345.16;;;10.14;62.24
59493;BME280;45497;43.996;22.876;2024-01-07T11:12:03;99334.75;;;10.06;62.32
59493;BME280;45497;43.996;22.876;2024-01-07T11:14:38;99340.47;;;10.09;62.50
59493;BME280;45497;43.996;22.876;2024-01-07T11:17:11;99341.06;;;10.05;62.63
59493;BME280;45497;43.996;22.876;2024-01-07T11:19:49;99342.69;;;10.06;63.14
59493;BME280;45497;43.996;22.876;2024-01-07T11:25:01;99342.91;;;10.24;62.73
59493;BME280;45497;43.996;22.876;2024-01-07T11:27:30;99345.78;;;10.23;62.56
59493;BME280;45497;43.996;22.876;2024-01-07T11:32:33;99332.06;;;9.99;62.82
59493;BME280;45497;43.996;22.876;2024-01-07T11:35:01;99336.34;;;9.87;62.96
59493;BME280;45497;43.996;22.876;2024-01-07T11:37:46;99329.84;;;10.03;63.16
59493;BME280;45497;43.996;22.876;2024-01-07T11:40:14;99330.88;;;10.02;62.93
59493;BME280;45497;43.996;22.876;2024-01-07T11:42:40;99326.59;;;10.07;62.89
59493;BME280;45497;43.996;22.876;2024-01-07T11:45:07;99326.44;;;10.16;62.77
59493;BME280;45497;43.996;22.876;2024-01-07T11:47:41;99324.97;;;10.13;62.75
59493;BME280;45497;43.996;22.876;2024-01-07T11:50:07;99335.56;;;10.06;63.36
59493;BME280;45497;43.996;22.876;2024-01-07T11:52:33;99330.25;;;10.00;63.29
59493;BME280;45497;43.996;22.876;2024-01-07T11:55:00;99324.09;;;9.79;63.92
59493;BME280;45497;43.996;22.876;2024-01-07T11:57:26;99322.28;;;9.80;64.22
59493;BME280;45497;43.996;22.876;2024-01-07T11:59:58;99318.97;;;9.77;64.16
59493;BME280;45497;43.996;22.876;2024-01-07T12:02:26;99331.47;;;9.90;64.01
59493;BME280;45497;43.996;22.876;2024-01-07T12:05:03;99322.81;;;9.68;65.02
59493;BME280;45497;43.996;22.876;2024-01-07T12:07:29;99329.00;;;9.82;64.36
59493;BME280;45497;43.996;22.876;2024-01-07T12:10:00;99323.72;;;9.89;64.25
59493;BME280;45497;43.996;22.876;2024-01-07T12:12:26;99326.19;;;10.17;63.48
59493;BME280;45497;43.996;22.876;2024-01-07T12:14:53;99337.47;;;10.32;63.30
59493;BME280;45497;43.996;22.876;2024-01-07T12:17:18;99339.72;;;10.42;62.66
59493;BME280;45497;43.996;22.876;2024-01-07T12:19:45;99348.28;;;10.51;62.73
59493;BME280;45497;43.996;22.876;2024-01-07T12:22:17;99347.50;;;10.57;62.46
59493;BME280;45497;43.996;22.876;2024-01-07T12:24:43;99357.47;;;10.68;62.21
59493;BME280;45497;43.996;22.876;2024-01-07T12:27:12;99353.78;;;10.76;61.99
59493;BME280;45497;43.996;22.876;2024-01-07T12:29:40;99354.19;;;10.93;61.86
59493;BME280;45497;43.996;22.876;2024-01-07T12:32:06;99359.88;;;11.03;61.44
59493;BME280;45497;43.996;22.876;2024-01-07T12:34:36;99365.38;;;11.08;61.47
59493;BME280;45497;43.996;22.876;2024-01-07T12:37:02;99367.44;;;11.06;61.40
59493;BME280;45497;43.996;22.876;2024-01-07T12:39:27;99371.69;;;11.14;61.04
59493;BME280;45497;43.996;22.876;2024-01-07T12:41:53;99375.56;;;11.25;61.14
59493;BME280;45497;43.996;22.876;2024-01-07T12:44:20;99367.41;;;11.20;60.99
59493;BME280;45497;43.996;22.876;2024-01-07T12:46:46;99385.97;;;11.20;61.34
59493;BME280;45497;43.996;22.876;2024-01-07T12:49:13;99385.38;;;11.18;61.12
59493;BME280;45497;43.996;22.876;2024-01-07T12:51:41;99388.44;;;10.95;61.57
59493;BME280;45497;43.996;22.876;2024-01-07T12:54:07;99379.47;;;10.89;61.52
59493;BME280;45497;43.996;22.876;2024-01-07T12:56:35;99384.38;;;10.85;61.88
59493;BME280;45497;43.996;22.876;2024-01-07T12:59:02;99387.03;;;10.92;61.73
59493;BME280;45497;43.996;22.876;2024-01-07T13:01:28;99389.88;;;10.90;61.92
59493;BME280;45497;43.996;22.876;2024-01-07T13:03:56;99387.22;;;10.90;61.69
59493;BME280;45497;43.996;22.876;2024-01-07T13:06:25;99388.44;;;10.95;61.83
59493;BME280;45497;43.996;22.876;2024-01-07T13:08:54;99393.34;;;10.98;61.82
59493;BME280;45497;43.996;22.876;2024-01-07T13:11:22;99397.63;;;10.99;61.41
59493;BME280;45497;43.996;22.876;2024-01-07T13:13:48;99392.53;;;10.77;62.08
59493;BME280;45497;43.996;22.876;2024-01-07T13:16:17;99390.09;;;10.69;62.46
59493;BME280;45497;43.996;22.876;2024-01-07T13:18:45;99398.25;;;10.74;62.64
59493;BME280;45497;43.996;22.876;2024-01-07T13:21:17;99396.19;;;10.69;62.32